Time;durP1;ratioP1;P1;durP2;ratioP2;P2;SDS_P1;SDS_P2;PMS_P1;PMS_P2;Temp;Humidity;BMP_temperature;BMP_pressure;BME280_temperature;BME280_humidity;BME280_pressure;Samples;Min_cycle;Max_cycle;Signal;HPM_P1;HPM_P2
2021/08/10 00:01:08;;;;;;;;;;;;;;;;;;5051232;28;19978;-59
2021/08/10 00:03:34;;;;;;;;;;;;;;;;;;5050703;28;19919;-59
2021/08/10 00:06:00;;;;;;;;;;;;;;;;;;5051381;28;19916;-59
2021/08/10 00:08:26;;;;;;;;;;;;;;;;;;5051386;28;19956;-59
2021/08/10 00:10:52;;;;;;;;;;;;;;;;;;5052265;28;19909;-59
2021/08/10 00:13:18;;;;;;;;;;;;;;;;;;5051457;28;19913;-59
2021/08/10 00:15:43;;;;;;;;;;;;;;;;;;5050641;28;19923;-59
2021/08/10 00:18:09;;;;;;;;;;;;;;;;;;5051136;28;19958;-59
2021/08/10 00:20:35;;;;;;;;;;;;;;;;;;5051325;28;20261;-59
2021/08/10 00:23:01;;;;;;;;;;;;;;;;;;5051568;28;19909;-59
2021/08/10 00:25:27;;;;;;;;;;;;;;;;;;5051843;28;19905;-59
2021/08/10 00:27:53;;;;;;;;;;;;;;;;;;5050747;28;19913;-59
2021/08/10 00:30:19;;;;;;;;;;;;;;;;;;5050772;28;19940;-59
2021/08/10 00:32:45;;;;;;;;;;;;;;;;;;5051368;28;19913;-59
2021/08/10 00:35:11;;;;;;;;;;;;;;;;;;5051314;28;20292;-59
2021/08/10 00:37:36;;;;;;;;;;;;;;;;;;5051792;28;19913;-59
2021/08/10 00:40:02;;;;;;;;;;;;;;;;;;5051217;28;19913;-59
2021/08/10 00:42:28;;;;;;;;;;;;;;;;;;5050380;28;19919;-59
2021/08/10 00:44:54;;;;;;;;;;;;;;;;;;5050873;28;19913;-59
2021/08/10 00:47:20;;;;;;;;;;;;;;;;;;5051179;28;19921;-59
2021/08/10 00:49:46;;;;;;;;;;;;;;;;;;5051637;28;20483;-59
2021/08/10 00:52:12;;;;;;;;;;;;;;;;;;5032624;28;19974;-59
2021/08/10 00:54:37;;;;;;;;;;;;;;;;;;5050784;28;20429;-59
2021/08/10 00:57:03;;;;;;;;;;;;;;;;;;5050251;28;19956;-59
2021/08/10 00:59:29;;;;;;;;;;;;;;;;;;5050672;28;20317;-59
2021/08/10 01:01:55;;;;;;;;;;;;;;;;;;5051121;28;19913;-59
2021/08/10 01:04:21;;;;;;;;;;;;;;;;;;5050892;28;19908;-59
2021/08/10 01:06:47;;;;;;;;;;;;;;;;;;5050395;28;19920;-59
2021/08/10 01:09:13;;;;;;;;;;;;;;;;;;5054227;28;20301;-59
2021/08/10 01:11:39;;;;;;;;;;;;;;;;;;5054549;28;19916;-59
2021/08/10 01:14:04;;;;;;;;;;;;;;;;;;5054141;28;20403;-59
2021/08/10 01:16:30;;;;;;;;;;;;;;;;;;5054928;28;20001;-59
2021/08/10 01:18:56;;;;;;;;;;;;;;;;;;5035901;28;19913;-59
2021/08/10 01:21:22;;;;;;;;;;;;;;;;;;5054125;28;19913;-59
2021/08/10 01:23:48;;;;;;;;;;;;;;;;;;5054122;28;19913;-59
2021/08/10 01:26:14;;;;;;;;;;;;;;;;;;5035484;28;19968;-59
2021/08/10 01:28:41;;;;;;;;;;;;;;;;;;5054538;28;19913;-59
2021/08/10 01:31:07;;;;;;;;;;;;;;;;;;5053992;28;19988;-60
2021/08/10 01:33:33;;;;;;;;;;;;;;;;;;5053856;28;20006;-59
2021/08/10 01:35:59;;;;;;;;;;;;;;;;;;5053333;28;19924;-59
2021/08/10 01:38:24;;;;;;;;;;;;;;;;;;5053790;28;19913;-60
2021/08/10 01:40:50;;;;;;;;;;;;;;;;;;5054158;28;19952;-59
2021/08/10 01:43:16;;;;;;;;;;;;;;;;;;5053516;28;20327;-60
2021/08/10 01:45:42;;;;;;;;;;;;;;;;;;5053745;28;19913;-60
2021/08/10 01:48:09;;;;;;;;;;;;;;;;;;5053456;28;19919;-60
2021/08/10 01:50:35;;;;;;;;;;;;;;;;;;5053638;28;20419;-60
2021/08/10 01:53:01;;;;;;;;;;;;;;;;;;5053503;28;19962;-60
2021/08/10 01:55:27;;;;;;;;;;;;;;;;;;5053950;28;19966;-60
2021/08/10 01:57:53;;;;;;;;;;;;;;;;;;5053278;28;20455;-60
2021/08/10 02:00:21;;;;;;;;;;;;;;;;;;5052460;28;20282;-60
2021/08/10 02:02:46;;;;;;;;;;;;;;;;;;5053193;28;20289;-60
2021/08/10 02:05:12;;;;;;;;;;;;;;;;;;5053291;28;19917;-60
2021/08/10 02:07:38;;;;;;;;;;;;;;;;;;5053952;28;19991;-60
2021/08/10 02:10:04;;;;;;;;;;;;;;;;;;5052898;28;20365;-60
2021/08/10 02:12:30;;;;;;;;;;;;;;;;;;5053012;28;19920;-60
2021/08/10 02:14:56;;;;;;;;;;;;;;;;;;5053080;28;20414;-60
2021/08/10 02:17:22;;;;;;;;;;;;;;;;;;5052586;28;19920;-59
2021/08/10 02:19:48;;;;;;;;;;;;;;;;;;5052793;28;19916;-60
2021/08/10 02:22:14;;;;;;;;;;;;;;;;;;5053004;28;19913;-60
2021/08/10 02:24:40;;;;;;;;;;;;;;;;;;5052935;28;19912;-59
2021/08/10 02:27:06;;;;;;;;;;;;;;;;;;5052377;28;20397;-60
2021/08/10 02:29:32;;;;;;;;;;;;;;;;;;5052699;28;19920;-59
2021/08/10 02:31:58;;;;;;;;;;;;;;;;;;5053228;28;20292;-59
2021/08/10 02:34:23;;;;;;;;;;;;;;;;;;5053352;28;20017;-60
2021/08/10 02:36:49;;;;;;;;;;;;;;;;;;5052808;28;20361;-60
2021/08/10 02:39:15;;;;;;;;;;;;;;;;;;5052454;28;19917;-59
2021/08/10 02:41:41;;;;;;;;;;;;;;;;;;5052349;28;20330;-60
2021/08/10 02:44:07;;;;;;;;;;;;;;;;;;5052483;28;20257;-60
2021/08/10 02:46:33;;;;;;;;;;;;;;;;;;5051263;28;19920;-60
2021/08/10 02:48:59;;;;;;;;;;;;;;;;;;5052441;28;19954;-60
2021/08/10 02:51:25;;;;;;;;;;;;;;;;;;5052055;28;20371;-60
2021/08/10 02:53:51;;;;;;;;;;;;;;;;;;5052541;28;20319;-60
2021/08/10 02:56:17;;;;;;;;;;;;;;;;;;5051607;28;19928;-60
2021/08/10 02:58:42;;;;;;;;;;;;;;;;;;5053046;28;19909;-59
2021/08/10 03:01:08;;;;;;;;;;;;;;;;;;5052022;28;19913;-60
2021/08/10 03:03:34;;;;;;;;;;;;;;;;;;5051873;28;19920;-60
2021/08/10 03:06:00;;;;;;;;;;;;;;;;;;5052273;28;19920;-60
2021/08/10 03:08:26;;;;;;;;;;;;;;;;;;5052214;28;19962;-60
2021/08/10 03:10:52;;;;;;;;;;;;;;;;;;5052300;28;19912;-60
2021/08/10 03:13:18;;;;;;;;;;;;;;;;;;5052062;28;20368;-60
2021/08/10 03:15:44;;;;;;;;;;;;;;;;;;5052096;28;19921;-59
2021/08/10 03:18:11;;;;;;;;;;;;;;;;;;5052204;28;19913;-59
2021/08/10 03:20:36;;;;;;;;;;;;;;;;;;5052108;28;19921;-60
2021/08/10 03:23:02;;;;;;;;;;;;;;;;;;5052063;28;19912;-60
2021/08/10 03:25:28;;;;;;;;;;;;;;;;;;5051755;28;19912;-60
2021/08/10 03:27:54;;;;;;;;;;;;;;;;;;5052035;28;19956;-60
2021/08/10 03:30:20;;;;;;;;;;;;;;;;;;5051665;28;19912;-60
2021/08/10 03:32:46;;;;;;;;;;;;;;;;;;5051555;28;19947;-60
2021/08/10 03:35:12;;;;;;;;;;;;;;;;;;5051948;28;19913;-59
2021/08/10 03:37:38;;;;;;;;;;;;;;;;;;5052204;28;19940;-60
2021/08/10 03:40:05;;;;;;;;;;;;;;;;;;5051053;28;19963;-60
2021/08/10 03:42:30;;;;;;;;;;;;;;;;;;5051656;28;19920;-60
2021/08/10 03:44:56;;;;;;;;;;;;;;;;;;5051667;28;19913;-60
2021/08/10 03:47:22;;;;;;;;;;;;;;;;;;5051750;28;19913;-60
2021/08/10 03:49:48;;;;;;;;;;;;;;;;;;5051641;28;19909;-60
2021/08/10 03:52:14;;;;;;;;;;;;;;;;;;5051510;28;19912;-60
2021/08/10 03:54:41;;;;;;;;;;;;;;;;;;5051530;28;19913;-60
2021/08/10 03:57:07;;;;;;;;;;;;;;;;;;5051289;28;19965;-60
2021/08/10 03:59:33;;;;;;;;;;;;;;;;;;5051030;28;19913;-60
2021/08/10 04:01:59;;;;;;;;;;;;;;;;;;5051796;28;19908;-60
2021/08/10 04:04:25;;;;;;;;;;;;;;;;;;5050749;28;19909;-59
2021/08/10 04:06:51;;;;;;;;;;;;;;;;;;5050977;28;20360;-60
2021/08/10 04:09:17;;;;;;;;;;;;;;;;;;5051400;28;19912;-60
2021/08/10 04:11:42;;;;;;;;;;;;;;;;;;5051336;28;19917;-60
2021/08/10 04:14:08;;;;;;;;;;;;;;;;;;5051357;28;19931;-60
2021/08/10 04:16:34;;;;;;;;;;;;;;;;;;5051974;28;19972;-60
2021/08/10 04:19:00;;;;;;;;;;;;;;;;;;5050744;28;19917;-59
2021/08/10 04:21:26;;;;;;;;;;;;;;;;;;5050869;28;19995;-59
2021/08/10 04:23:52;;;;;;;;;;;;;;;;;;5051212;28;19913;-60
2021/08/10 04:26:18;;;;;;;;;;;;;;;;;;5048215;28;19920;-59
2021/08/10 04:28:44;;;;;;;;;;;;;;;;;;5042079;28;19996;-60
2021/08/10 04:31:10;;;;;;;;;;;;;;;;;;5042868;28;19959;-60
2021/08/10 04:33:36;;;;;;;;;;;;;;;;;;5041818;28;19999;-60
2021/08/10 04:36:02;;;;;;;;;;;;;;;;;;5042015;28;19928;-62
2021/08/10 04:38:28;;;;;;;;;;;;;;;;;;5043371;28;19927;-61
2021/08/10 04:40:54;;;;;;;;;;;;;;;;;;5041265;28;20005;-61
2021/08/10 04:43:21;;;;;;;;;;;;;;;;;;5044535;28;20295;-61
2021/08/10 04:45:47;;;;;;;;;;;;;;;;;;5044420;28;20420;-62
2021/08/10 04:48:13;;;;;;;;;;;;;;;;;;5042945;28;19974;-62
2021/08/10 04:50:39;;;;;;;;;;;;;;;;;;5040953;28;19920;-61
2021/08/10 04:53:05;;;;;;;;;;;;;;;;;;5039044;28;19912;-62
2021/08/10 04:55:31;;;;;;;;;;;;;;;;;;5041332;28;20388;-62
2021/08/10 04:57:56;;;;;;;;;;;;;;;;;;5039065;28;19920;-62
2021/08/10 05:00:22;;;;;;;;;;;;;;;;;;5042499;28;19914;-62
2021/08/10 05:02:48;;;;;;;;;;;;;;;;;;5041544;28;19920;-62
2021/08/10 05:05:14;;;;;;;;;;;;;;;;;;5038695;28;19920;-62
2021/08/10 05:07:40;;;;;;;;;;;;;;;;;;5040327;28;20376;-62
2021/08/10 05:10:06;;;;;;;;;;;;;;;;;;5044775;28;19917;-62
2021/08/10 05:12:32;;;;;;;;;;;;;;;;;;5043567;28;19995;-62
2021/08/10 05:14:58;;;;;;;;;;;;;;;;;;5043249;28;19936;-61
2021/08/10 05:17:24;;;;;;;;;;;;;;;;;;5046086;28;20003;-61
2021/08/10 05:19:49;;;;;;;;;;;;;;;;;;5040493;28;19909;-63
2021/08/10 05:22:16;;;;;;;;;;;;;;;;;;5051801;28;20014;-63
2021/08/10 05:24:42;;;;;;;;;;;;;;;;;;5051032;28;19913;-62
2021/08/10 05:27:08;;;;;;;;;;;;;;;;;;5051089;28;20024;-62
2021/08/10 05:29:34;;;;;;;;;;;;;;;;;;5047413;28;20383;-63
2021/08/10 05:32:00;;;;;;;;;;;;;;;;;;5038449;28;19920;-62
2021/08/10 05:34:26;;;;;;;;;;;;;;;;;;5043496;28;19921;-63
2021/08/10 05:36:52;;;;;;;;;;;;;;;;;;5044564;28;19924;-62
2021/08/10 05:39:17;;;;;;;;;;;;;;;;;;5044644;28;19974;-62
2021/08/10 05:41:43;;;;;;;;;;;;;;;;;;5041728;28;19909;-62
2021/08/10 05:44:09;;;;;;;;;;;;;;;;;;5045191;28;19914;-62
2021/08/10 05:46:35;;;;;;;;;;;;;;;;;;5039681;28;20001;-63
2021/08/10 05:49:01;;;;;;;;;;;;;;;;;;5045635;28;19943;-62
2021/08/10 05:51:27;;;;;;;;;;;;;;;;;;5045991;28;20022;-61
2021/08/10 05:53:53;;;;;;;;;;;;;;;;;;5043318;28;19913;-62
2021/08/10 05:56:19;;;;;;;;;;;;;;;;;;5045017;28;20422;-61
2021/08/10 05:58:45;;;;;;;;;;;;;;;;;;5043950;28;19913;-61
2021/08/10 06:01:11;;;;;;;;;;;;;;;;;;5046484;28;19920;-62
2021/08/10 06:03:36;;;;;;;;;;;;;;;;;;5045419;28;20009;-62
2021/08/10 06:06:02;;;;;;;;;;;;;;;;;;5046018;28;19982;-62
2021/08/10 06:08:28;;;;;;;;;;;;;;;;;;5043855;28;19928;-62
2021/08/10 06:10:54;;;;;;;;;;;;;;;;;;5043762;28;19923;-63
2021/08/10 06:13:20;;;;;;;;;;;;;;;;;;5045362;28;19909;-62
2021/08/10 06:15:46;;;;;;;;;;;;;;;;;;5044900;28;19948;-61
2021/08/10 06:18:12;;;;;;;;;;;;;;;;;;5048765;28;19944;-62
2021/08/10 06:20:38;;;;;;;;;;;;;;;;;;5052289;28;19920;-64
2021/08/10 06:23:05;;;;;;;;;;;;;;;;;;5053060;28;20275;-60
2021/08/10 06:25:31;;;;;;;;;;;;;;;;;;5052970;28;20320;-62
2021/08/10 06:27:57;;;;;;;;;;;;;;;;;;5052947;28;19920;-62
2021/08/10 06:30:22;;;;;;;;;;;;;;;;;;5052691;28;20002;-62
2021/08/10 06:32:48;;;;;;;;;;;;;;;;;;5051863;28;19908;-62
2021/08/10 06:35:14;;;;;;;;;;;;;;;;;;5052696;28;19960;-63
2021/08/10 06:37:40;;;;;;;;;;;;;;;;;;5053329;28;19917;-62
2021/08/10 06:40:06;;;;;;;;;;;;;;;;;;5052600;28;19920;-63
2021/08/10 06:42:32;;;;;;;;;;;;;;;;;;5052731;28;19919;-63
2021/08/10 06:44:58;;;;;;;;;;;;;;;;;;5051882;28;20314;-62
2021/08/10 06:47:24;;;;;;;;;;;;;;;;;;5052538;28;19920;-63
2021/08/10 06:49:50;;;;;;;;;;;;;;;;;;5049046;28;19908;-63
2021/08/10 06:52:16;;;;;;;;;;;;;;;;;;5030689;28;19913;-63
2021/08/10 06:54:42;;;;;;;;;;;;;;;;;;5031242;28;19917;-62
2021/08/10 06:57:09;;;;;;;;;;;;;;;;;;5042109;28;20343;-61
2021/08/10 06:59:35;;;;;;;;;;;;;;;;;;5051362;28;19920;-60
2021/08/10 07:02:01;;;;;;;;;;;;;;;;;;5044819;28;20004;-60
2021/08/10 07:04:27;;;;;;;;;;;;;;;;;;5038215;28;19992;-60
2021/08/10 07:06:53;;;;;;;;;;;;;;;;;;5044905;28;19939;-60
2021/08/10 07:09:19;;;;;;;;;;;;;;;;;;5050780;28;19913;-60
2021/08/10 07:11:45;;;;;;;;;;;;;;;;;;5050825;28;19970;-60
2021/08/10 07:14:12;;;;;;;;;;;;;;;;;;5050134;28;19956;-60
2021/08/10 07:16:37;;;;;;;;;;;;;;;;;;5048706;28;19917;-60
2021/08/10 07:19:03;;;;;;;;;;;;;;;;;;5042567;28;19939;-60
2021/08/10 07:21:29;;;;;;;;;;;;;;;;;;5045437;28;20394;-60
2021/08/10 07:23:55;;;;;;;;;;;;;;;;;;5032511;28;19916;-61
2021/08/10 07:26:21;;;;;;;;;;;;;;;;;;5050119;28;19921;-61
2021/08/10 07:28:47;;;;;;;;;;;;;;;;;;5051040;28;19909;-61
2021/08/10 07:31:13;;;;;;;;;;;;;;;;;;5043981;28;20360;-63
2021/08/10 07:33:39;;;;;;;;;;;;;;;;;;5046120;28;19913;-61
2021/08/10 07:36:04;;;;;;;;;;;;;;;;;;5049489;28;20408;-61
2021/08/10 07:38:30;;;;;;;;;;;;;;;;;;5049307;28;19917;-65
2021/08/10 07:40:56;;;;;;;;;;;;;;;;;;5047302;28;19908;-64
2021/08/10 07:43:22;;;;;;;;;;;;;;;;;;5051605;28;19909;-65
2021/08/10 07:45:48;;;;;;;;;;;;;;;;;;5050331;28;19913;-65
2021/08/10 07:48:15;;;;;;;;;;;;;;;;;;5050562;28;19913;-64
2021/08/10 07:50:41;;;;;;;;;;;;;;;;;;5049585;28;19987;-64
2021/08/10 07:53:07;;;;;;;;;;;;;;;;;;5035368;28;20334;-64
2021/08/10 07:55:35;;;;;;;;;;;;;;;;;;5051615;28;20338;-64
2021/08/10 07:58:01;;;;;;;;;;;;;;;;;;5043807;28;19975;-65
2021/08/10 08:00:27;;;;;;;;;;;;;;;;;;5041710;28;20341;-65
2021/08/10 08:02:53;;;;;;;;;;;;;;;;;;5049440;28;19913;-64
2021/08/10 08:05:18;;;;;;;;;;;;;;;;;;5050462;28;19934;-65
2021/08/10 08:07:44;;;;;;;;;;;;;;;;;;5050821;28;20008;-65
2021/08/10 08:10:10;;;;;;;;;;;;;;;;;;5050317;28;19921;-65
2021/08/10 08:12:36;;;;;;;;;;;;;;;;;;5051084;28;20291;-65
2021/08/10 08:15:02;;;;;;;;;;;;;;;;;;5050763;28;19996;-65
2021/08/10 08:17:28;;;;;;;;;;;;;;;;;;5052301;28;20368;-65
2021/08/10 08:19:54;;;;;;;;;;;;;;;;;;5055551;28;19916;-65
2021/08/10 08:22:20;;;;;;;;;;;;;;;;;;5055381;28;19962;-65
2021/08/10 08:24:45;;;;;;;;;;;;;;;;;;5055057;28;19919;-64
2021/08/10 08:27:12;;;;;;;;;;;;;;;;;;5055421;28;20364;-65
2021/08/10 08:29:38;;;;;;;;;;;;;;;;;;5054493;28;20384;-65
2021/08/10 08:32:06;;;;;;;;;;;;;;;;;;5055322;28;19955;-65
2021/08/10 08:34:32;;;;;;;;;;;;;;;;;;5055645;28;19944;-65
2021/08/10 08:36:57;;;;;;;;;;;;;;;;;;5054777;28;20419;-65
2021/08/10 08:39:23;;;;;;;;;;;;;;;;;;5054505;28;19919;-67
2021/08/10 08:41:49;;;;;;;;;;;;;;;;;;5055032;28;19940;-65
2021/08/10 08:44:16;;;;;;;;;;;;;;;;;;5054929;28;19920;-64
2021/08/10 08:46:42;;;;;;;;;;;;;;;;;;5054774;28;19913;-65
2021/08/10 08:49:08;;;;;;;;;;;;;;;;;;5054352;28;19935;-65
2021/08/10 08:51:34;;;;;;;;;;;;;;;;;;5054523;28;19978;-65
2021/08/10 08:54:00;;;;;;;;;;;;;;;;;;5054788;28;19913;-65
2021/08/10 08:56:26;;;;;;;;;;;;;;;;;;5054332;28;19924;-65
2021/08/10 08:58:52;;;;;;;;;;;;;;;;;;5054872;28;20611;-65
2021/08/10 09:01:18;;;;;;;;;;;;;;;;;;5054436;28;20331;-65
2021/08/10 09:03:44;;;;;;;;;;;;;;;;;;5054470;28;19992;-65
2021/08/10 09:06:10;;;;;;;;;;;;;;;;;;5054145;28;19912;-66
2021/08/10 09:08:39;;;;;;;;;;;;;;;;;;5054309;28;19917;-66
2021/08/10 09:11:05;;;;;;;;;;;;;;;;;;5054244;28;20016;-66
2021/08/10 09:13:31;;;;;;;;;;;;;;;;;;5054557;28;19982;-65
2021/08/10 09:15:57;;;;;;;;;;;;;;;;;;5054301;28;19943;-66
2021/08/10 09:18:23;;;;;;;;;;;;;;;;;;5054421;28;19920;-67
2021/08/10 09:20:49;;;;;;;;;;;;;;;;;;5053988;28;20003;-67
2021/08/10 09:23:15;;;;;;;;;;;;;;;;;;5054258;28;19990;-66
2021/08/10 09:25:41;;;;;;;;;;;;;;;;;;5054213;28;19920;-66
2021/08/10 09:28:06;;;;;;;;;;;;;;;;;;5053888;28;20395;-67
2021/08/10 09:30:34;;;;;;;;;;;;;;;;;;5054298;28;19944;-67
2021/08/10 09:33:00;;;;;;;;;;;;;;;;;;5053862;28;19952;-65
2021/08/10 09:35:26;;;;;;;;;;;;;;;;;;5053928;28;20269;-66
2021/08/10 09:37:52;;;;;;;;;;;;;;;;;;5054582;28;19923;-70
2021/08/10 09:40:18;;;;;;;;;;;;;;;;;;5053969;28;19940;-69
2021/08/10 09:42:44;;;;;;;;;;;;;;;;;;5053599;28;19913;-71
2021/08/10 09:45:10;;;;;;;;;;;;;;;;;;5053294;28;19913;-69
2021/08/10 09:47:36;;;;;;;;;;;;;;;;;;5053288;28;20175;-69
2021/08/10 09:50:02;;;;;;;;;;;;;;;;;;5053749;28;20402;-69
2021/08/10 09:52:27;;;;;;;;;;;;;;;;;;5054206;28;20003;-69
2021/08/10 09:54:53;;;;;;;;;;;;;;;;;;5053258;28;20356;-69
2021/08/10 09:57:19;;;;;;;;;;;;;;;;;;5052565;28;20003;-69
2021/08/10 09:59:45;;;;;;;;;;;;;;;;;;5053401;28;20373;-69
2021/08/10 10:02:11;;;;;;;;;;;;;;;;;;5053088;28;19935;-69
2021/08/10 10:04:37;;;;;;;;;;;;;;;;;;5035868;28;20390;-69
2021/08/10 10:07:03;;;;;;;;;;;;;;;;;;5053369;28;19963;-69
2021/08/10 10:09:29;;;;;;;;;;;;;;;;;;5053156;28;19913;-69
2021/08/10 10:11:55;;;;;;;;;;;;;;;;;;5052843;28;19923;-69
2021/08/10 10:14:21;;;;;;;;;;;;;;;;;;5052978;28;19921;-69
2021/08/10 10:16:48;;;;;;;;;;;;;;;;;;5053819;28;19920;-69
2021/08/10 10:19:14;;;;;;;;;;;;;;;;;;5052745;28;19971;-69
2021/08/10 10:21:40;;;;;;;;;;;;;;;;;;5053292;28;20356;-69
2021/08/10 10:24:06;;;;;;;;;;;;;;;;;;5052885;28;20007;-70
2021/08/10 10:26:32;;;;;;;;;;;;;;;;;;5052791;28;19920;-69
2021/08/10 10:28:58;;;;;;;;;;;;;;;;;;5052701;28;19909;-69
2021/08/10 10:31:23;;;;;;;;;;;;;;;;;;5053329;28;19944;-69
2021/08/10 10:33:49;;;;;;;;;;;;;;;;;;5052671;28;20360;-69
2021/08/10 10:36:15;;;;;;;;;;;;;;;;;;5045715;28;19920;-69
2021/08/10 10:38:41;;;;;;;;;;;;;;;;;;5033872;28;19917;-69
2021/08/10 10:41:09;;;;;;;;;;;;;;;;;;5044016;28;19913;-70
2021/08/10 10:43:35;;;;;;;;;;;;;;;;;;5050338;28;20351;-71
2021/08/10 10:46:01;;;;;;;;;;;;;;;;;;5051097;28;19959;-71
2021/08/10 10:48:27;;;;;;;;;;;;;;;;;;5050737;28;20028;-70
2021/08/10 10:50:53;;;;;;;;;;;;;;;;;;5051347;28;20269;-72
2021/08/10 10:53:19;;;;;;;;;;;;;;;;;;5034749;28;20440;-71
2021/08/10 10:55:45;;;;;;;;;;;;;;;;;;5051689;28;19970;-71
2021/08/10 10:58:11;;;;;;;;;;;;;;;;;;5050323;28;19921;-70
2021/08/10 11:00:36;;;;;;;;;;;;;;;;;;5044539;28;19924;-71
2021/08/10 11:03:02;;;;;;;;;;;;;;;;;;5045870;28;20324;-73
2021/08/10 11:05:28;;;;;;;;;;;;;;;;;;5050481;28;19912;-70
2021/08/10 11:07:54;;;;;;;;;;;;;;;;;;5034981;28;20389;-68
2021/08/10 11:10:20;;;;;;;;;;;;;;;;;;5050490;28;19917;-71
2021/08/10 11:12:47;;;;;;;;;;;;;;;;;;5049162;28;20425;-71
2021/08/10 11:15:13;;;;;;;;;;;;;;;;;;5050600;28;20284;-73
2021/08/10 11:17:39;;;;;;;;;;;;;;;;;;5051311;28;19921;-71
2021/08/10 11:20:04;;;;;;;;;;;;;;;;;;5049926;28;19916;-70
2021/08/10 11:22:31;;;;;;;;;;;;;;;;;;5048868;28;20383;-72
2021/08/10 11:25:00;;;;;;;;;;;;;;;;;;5051863;28;20357;-73
2021/08/10 11:27:26;;;;;;;;;;;;;;;;;;5048738;28;20288;-71
2021/08/10 11:29:51;;;;;;;;;;;;;;;;;;5048381;28;19912;-71
2021/08/10 11:32:17;;;;;;;;;;;;;;;;;;5035576;28;20020;-71
2021/08/10 11:34:43;;;;;;;;;;;;;;;;;;5041400;28;19920;-71
2021/08/10 11:37:09;;;;;;;;;;;;;;;;;;5041926;28;19982;-71
2021/08/10 11:39:35;;;;;;;;;;;;;;;;;;5042395;28;19966;-71
2021/08/10 11:42:01;;;;;;;;;;;;;;;;;;5036037;28;20291;-71
2021/08/10 11:44:27;;;;;;;;;;;;;;;;;;5034446;28;19917;-71
2021/08/10 11:46:52;;;;;;;;;;;;;;;;;;5052123;28;19940;-71
2021/08/10 11:49:19;;;;;;;;;;;;;;;;;;5051038;28;19917;-71
2021/08/10 11:51:45;;;;;;;;;;;;;;;;;;5051200;28;19924;-71
2021/08/10 11:54:11;;;;;;;;;;;;;;;;;;5051552;28;19929;-71
2021/08/10 11:56:37;;;;;;;;;;;;;;;;;;5050920;28;20335;-72
2021/08/10 11:59:03;;;;;;;;;;;;;;;;;;5051372;28;19952;-71
2021/08/10 12:01:29;;;;;;;;;;;;;;;;;;5052012;28;19920;-71
2021/08/10 12:03:55;;;;;;;;;;;;;;;;;;5051201;28;20343;-71
2021/08/10 12:06:20;;;;;;;;;;;;;;;;;;5050866;28;19912;-71
2021/08/10 12:08:46;;;;;;;;;;;;;;;;;;5050609;28;20004;-71
2021/08/10 12:11:12;;;;;;;;;;;;;;;;;;5051292;28;19942;-71
2021/08/10 12:13:38;;;;;;;;;;;;;;;;;;5052242;28;19920;-71
2021/08/10 12:16:04;;;;;;;;;;;;;;;;;;5051274;28;19916;-71
2021/08/10 12:18:30;;;;;;;;;;;;;;;;;;5050810;28;19913;-71
2021/08/10 12:20:56;;;;;;;;;;;;;;;;;;5050993;28;19931;-72
2021/08/10 12:23:22;;;;;;;;;;;;;;;;;;5035544;28;19919;-71
2021/08/10 12:25:48;;;;;;;;;;;;;;;;;;5051964;28;19909;-71
2021/08/10 12:28:14;;;;;;;;;;;;;;;;;;5050748;28;19912;-72
2021/08/10 12:30:39;;;;;;;;;;;;;;;;;;5050632;28;19969;-70
2021/08/10 12:33:05;;;;;;;;;;;;;;;;;;5051040;28;19909;-72
2021/08/10 12:35:31;;;;;;;;;;;;;;;;;;5050915;28;19913;-72
2021/08/10 12:37:57;;;;;;;;;;;;;;;;;;5050970;28;19923;-70
2021/08/10 12:40:24;;;;;;;;;;;;;;;;;;5051563;28;19938;-70
2021/08/10 12:42:49;;;;;;;;;;;;;;;;;;5046623;28;19909;-73
2021/08/10 12:45:15;;;;;;;;;;;;;;;;;;5033060;28;20279;-72
2021/08/10 12:47:43;;;;;;;;;;;;;;;;;;5050849;28;19909;-72
2021/08/10 12:50:09;;;;;;;;;;;;;;;;;;5050993;28;20020;-72
2021/08/10 12:52:35;;;;;;;;;;;;;;;;;;5051288;28;20063;-71
2021/08/10 12:55:01;;;;;;;;;;;;;;;;;;5045967;28;19920;-70
2021/08/10 12:57:27;;;;;;;;;;;;;;;;;;5042873;28;19925;-71
2021/08/10 12:59:55;;;;;;;;;;;;;;;;;;5042115;28;19913;-70
2021/08/10 13:02:21;;;;;;;;;;;;;;;;;;5042979;28;19927;-68
2021/08/10 13:04:47;;;;;;;;;;;;;;;;;;5045115;28;20279;-71
2021/08/10 13:07:13;;;;;;;;;;;;;;;;;;5046134;28;19917;-70
2021/08/10 13:09:39;;;;;;;;;;;;;;;;;;5046150;28;20020;-70
2021/08/10 13:12:05;;;;;;;;;;;;;;;;;;5047187;28;19913;-69
2021/08/10 13:14:30;;;;;;;;;;;;;;;;;;5044885;28;19935;-70
2021/08/10 13:16:56;;;;;;;;;;;;;;;;;;5044922;28;19924;-68
2021/08/10 13:19:22;;;;;;;;;;;;;;;;;;5045366;28;19917;-68
2021/08/10 13:21:48;;;;;;;;;;;;;;;;;;5026905;28;20024;-68
2021/08/10 13:24:14;;;;;;;;;;;;;;;;;;5044735;28;19963;-67
2021/08/10 13:26:40;;;;;;;;;;;;;;;;;;5044284;28;20351;-69
2021/08/10 13:29:06;;;;;;;;;;;;;;;;;;5046178;28;19913;-68
2021/08/10 13:31:32;;;;;;;;;;;;;;;;;;5046627;28;19949;-69
2021/08/10 13:33:58;;;;;;;;;;;;;;;;;;5045941;28;19913;-68
2021/08/10 13:36:24;;;;;;;;;;;;;;;;;;5045742;28;19928;-67
2021/08/10 13:38:50;;;;;;;;;;;;;;;;;;5044171;28;20345;-69
2021/08/10 13:41:16;;;;;;;;;;;;;;;;;;5053911;28;19975;-68
2021/08/10 13:43:42;;;;;;;;;;;;;;;;;;5054672;28;19920;-68
2021/08/10 13:46:08;;;;;;;;;;;;;;;;;;5053894;28;19915;-68
2021/08/10 13:48:34;;;;;;;;;;;;;;;;;;5052810;28;19982;-66
2021/08/10 13:51:00;;;;;;;;;;;;;;;;;;5053633;28;19909;-66
2021/08/10 13:53:27;;;;;;;;;;;;;;;;;;5053823;28;19917;-66
2021/08/10 13:55:53;;;;;;;;;;;;;;;;;;5054188;28;19917;-66
2021/08/10 13:58:18;;;;;;;;;;;;;;;;;;5053390;28;20326;-66
2021/08/10 14:00:44;;;;;;;;;;;;;;;;;;5052735;28;19919;-67
2021/08/10 14:03:11;;;;;;;;;;;;;;;;;;5053665;28;20406;-67
2021/08/10 14:05:36;;;;;;;;;;;;;;;;;;5053604;28;19923;-66
2021/08/10 14:08:02;;;;;;;;;;;;;;;;;;5053435;28;20624;-66
2021/08/10 14:10:28;;;;;;;;;;;;;;;;;;5054014;28;19909;-66
2021/08/10 14:12:54;;;;;;;;;;;;;;;;;;5052923;28;19912;-67
2021/08/10 14:15:20;;;;;;;;;;;;;;;;;;5051723;28;19966;-67
2021/08/10 14:17:46;;;;;;;;;;;;;;;;;;5053103;28;20295;-66
2021/08/10 14:20:12;;;;;;;;;;;;;;;;;;5053289;28;19916;-66
2021/08/10 14:22:38;;;;;;;;;;;;;;;;;;5053910;28;19916;-66
2021/08/10 14:25:04;;;;;;;;;;;;;;;;;;5052657;28;19913;-67
2021/08/10 14:27:31;;;;;;;;;;;;;;;;;;5052908;28;19913;-66
2021/08/10 14:29:57;;;;;;;;;;;;;;;;;;5052858;28;19987;-67
2021/08/10 14:32:23;;;;;;;;;;;;;;;;;;5043225;28;19917;-66
2021/08/10 14:34:49;;;;;;;;;;;;;;;;;;5047569;28;19916;-67
2021/08/10 14:37:15;;;;;;;;;;;;;;;;;;5052137;28;19967;-67
2021/08/10 14:39:41;;;;;;;;;;;;;;;;;;5050672;28;19917;-67
2021/08/10 14:42:07;;;;;;;;;;;;;;;;;;5050834;28;19956;-67
2021/08/10 14:44:33;;;;;;;;;;;;;;;;;;5052380;28;19917;-67
2021/08/10 14:46:59;;;;;;;;;;;;;;;;;;5052474;28;19909;-67
2021/08/10 14:49:26;;;;;;;;;;;;;;;;;;5052306;28;19908;-67
2021/08/10 14:51:52;;;;;;;;;;;;;;;;;;5052219;28;19919;-67
2021/08/10 14:54:18;;;;;;;;;;;;;;;;;;5037533;28;19928;-66
2021/08/10 14:56:44;;;;;;;;;;;;;;;;;;5051754;28;20031;-67
2021/08/10 14:59:10;;;;;;;;;;;;;;;;;;5051971;28;19947;-67
2021/08/10 15:01:36;;;;;;;;;;;;;;;;;;5048567;28;20343;-67
2021/08/10 15:04:02;;;;;;;;;;;;;;;;;;5048424;28;19921;-67
2021/08/10 15:06:28;;;;;;;;;;;;;;;;;;5051536;28;19920;-67
2021/08/10 15:08:54;;;;;;;;;;;;;;;;;;5051172;28;20311;-66
2021/08/10 15:11:19;;;;;;;;;;;;;;;;;;5047826;28;19917;-67
2021/08/10 15:13:45;;;;;;;;;;;;;;;;;;5052148;28;20444;-67
2021/08/10 15:16:11;;;;;;;;;;;;;;;;;;5051614;28;19924;-67
2021/08/10 15:18:37;;;;;;;;;;;;;;;;;;5051918;28;19956;-67
2021/08/10 15:21:03;;;;;;;;;;;;;;;;;;5051811;28;19920;-67
2021/08/10 15:23:29;;;;;;;;;;;;;;;;;;5049876;28;20334;-67
2021/08/10 15:25:56;;;;;;;;;;;;;;;;;;5030491;28;19909;-67
2021/08/10 15:28:22;;;;;;;;;;;;;;;;;;5051100;28;20380;-67
2021/08/10 15:30:47;;;;;;;;;;;;;;;;;;5048861;28;19913;-67
2021/08/10 15:33:13;;;;;;;;;;;;;;;;;;5048925;28;19964;-67
2021/08/10 15:35:39;;;;;;;;;;;;;;;;;;5050406;28;20432;-67
2021/08/10 15:38:05;;;;;;;;;;;;;;;;;;5047310;28;19921;-67
2021/08/10 15:40:31;;;;;;;;;;;;;;;;;;5051937;28;19909;-67
2021/08/10 15:42:57;;;;;;;;;;;;;;;;;;5051133;28;19913;-60
2021/08/10 15:45:23;;;;;;;;;;;;;;;;;;5051206;28;19913;-60
2021/08/10 15:47:50;;;;;;;;;;;;;;;;;;5048061;28;19979;-60
2021/08/10 15:50:17;;;;;;;;;;;;;;;;;;5032584;28;19928;-60
2021/08/10 15:52:43;;;;;;;;;;;;;;;;;;5052095;28;19944;-60
2021/08/10 15:55:09;;;;;;;;;;;;;;;;;;5050631;28;19956;-60
2021/08/10 15:57:35;;;;;;;;;;;;;;;;;;5050647;28;19964;-60
2021/08/10 16:00:01;;;;;;;;;;;;;;;;;;5051356;28;20348;-60
2021/08/10 16:02:26;;;;;;;;;;;;;;;;;;5051197;28;19917;-60
2021/08/10 16:04:52;;;;;;;;;;;;;;;;;;5051880;28;19912;-60
2021/08/10 16:07:18;;;;;;;;;;;;;;;;;;5045759;28;19920;-60
2021/08/10 16:09:44;;;;;;;;;;;;;;;;;;5040686;28;20520;-60
2021/08/10 16:12:10;;;;;;;;;;;;;;;;;;5041292;28;19913;-60
2021/08/10 16:14:37;;;;;;;;;;;;;;;;;;5051535;28;19913;-60
2021/08/10 16:17:02;;;;;;;;;;;;;;;;;;5051144;28;19917;-60
2021/08/10 16:19:28;;;;;;;;;;;;;;;;;;5051877;28;19913;-60
2021/08/10 16:21:54;;;;;;;;;;;;;;;;;;5050971;28;20273;-60
2021/08/10 16:24:20;;;;;;;;;;;;;;;;;;5051349;28;19912;-60
2021/08/10 16:26:46;;;;;;;;;;;;;;;;;;5051007;28;20427;-60
2021/08/10 16:29:12;;;;;;;;;;;;;;;;;;5051072;28;19924;-60
2021/08/10 16:31:38;;;;;;;;;;;;;;;;;;5051583;28;20016;-60
2021/08/10 16:34:04;;;;;;;;;;;;;;;;;;5051355;28;20279;-60
2021/08/10 16:36:31;;;;;;;;;;;;;;;;;;5050700;28;19928;-60